createdAt,value
2024-04-06T00:00:52.918Z,70.11
2024-04-06T00:01:52.918Z,71.15
2024-04-06T00:02:52.921Z,71.57
2024-04-06T00:03:53.907Z,72.01
2024-04-06T00:04:52.906Z,71.87
2024-04-06T00:05:52.878Z,72.13
2024-04-06T00:06:52.876Z,71.73
2024-04-06T00:07:59.657Z,71.75
2024-04-06T00:08:52.851Z,72.12
2024-04-06T00:09:52.856Z,72.28
2024-04-06T00:10:52.858Z,71.96
2024-04-06T00:11:52.816Z,71.62
2024-04-06T00:12:52.819Z,71.68
2024-04-06T00:13:52.818Z,71.76
2024-04-06T00:14:52.782Z,71.79
2024-04-06T00:15:52.800Z,71.02
2024-04-06T00:16:52.803Z,70.80
2024-04-06T00:17:52.809Z,70.79
2024-04-06T00:18:52.732Z,71.27
2024-04-06T00:19:52.714Z,71.39
2024-04-06T00:20:52.727Z,71.79
2024-04-06T00:21:52.704Z,71.89
2024-04-06T00:22:52.677Z,71.40
2024-04-06T00:23:52.695Z,71.18
2024-04-06T00:24:52.641Z,71.09
2024-04-06T00:25:52.639Z,71.32
2024-04-06T00:26:52.629Z,71.79
2024-04-06T00:27:52.613Z,72.05
2024-04-06T00:28:52.609Z,72.00
2024-04-06T00:29:52.634Z,72.12
2024-04-06T00:30:52.603Z,71.93
2024-04-06T00:31:52.573Z,71.58
2024-04-06T00:32:52.591Z,71.41
2024-04-06T00:33:52.555Z,71.34
2024-04-06T00:34:52.632Z,71.75
2024-04-06T00:35:52.590Z,71.79
2024-04-06T00:36:52.539Z,71.11
2024-04-06T00:37:52.514Z,70.66
2024-04-06T00:38:52.517Z,70.72
2024-04-06T00:39:52.489Z,70.85
2024-04-06T00:40:52.490Z,71.09
2024-04-06T00:41:52.516Z,70.49
2024-04-06T00:42:52.519Z,70.43
2024-04-06T00:43:52.477Z,70.34
2024-04-06T00:44:52.441Z,70.86
2024-04-06T00:45:52.425Z,71.19
2024-04-06T00:46:52.424Z,70.99
2024-04-06T00:47:52.417Z,70.69
2024-04-06T00:48:52.441Z,70.96
2024-04-06T00:49:52.401Z,70.74
2024-04-06T00:50:52.370Z,70.83
2024-04-06T00:51:52.377Z,70.74
2024-04-06T00:52:52.382Z,70.85
2024-04-06T00:55:19.763Z,70.76
2024-04-06T00:55:25.638Z,71.26
2024-04-06T00:56:25.657Z,71.88
2024-04-06T00:57:25.608Z,72.27
2024-04-06T00:58:25.610Z,72.17
2024-04-06T00:59:25.636Z,71.54
2024-04-06T01:00:25.639Z,72.12
2024-04-06T01:01:25.582Z,72.97
2024-04-06T01:02:25.613Z,73.01
2024-04-06T01:03:25.544Z,72.83
2024-04-06T01:04:25.548Z,72.76
2024-04-06T01:05:25.512Z,71.58
2024-04-06T01:06:25.545Z,71.17
2024-04-06T01:07:25.537Z,71.56
2024-04-06T01:08:25.530Z,71.98
2024-04-06T01:09:25.494Z,72.37
2024-04-06T01:10:25.484Z,72.47
2024-04-06T01:11:25.477Z,72.45
2024-04-06T01:12:25.518Z,72.44
2024-04-06T01:13:25.446Z,72.51
2024-04-06T01:14:25.447Z,72.51
2024-04-06T01:15:25.407Z,72.30
2024-04-06T01:16:25.418Z,71.95
2024-04-06T01:17:25.405Z,71.93
2024-04-06T01:18:25.429Z,71.55
2024-04-06T01:19:25.431Z,71.92
2024-04-06T01:20:25.378Z,72.01
2024-04-06T01:21:25.366Z,71.69
2024-04-06T01:22:25.324Z,71.73
2024-04-06T01:23:25.337Z,71.42
2024-04-06T01:24:25.329Z,71.41
2024-04-06T01:25:25.390Z,71.21
2024-04-06T01:26:25.335Z,70.62
2024-04-06T01:27:25.292Z,70.88
2024-04-06T01:28:25.286Z,71.06
2024-04-06T01:29:25.296Z,70.55
2024-04-06T01:30:25.271Z,70.57
2024-04-06T01:31:25.281Z,70.01
2024-04-06T01:32:25.260Z,69.44
2024-04-06T01:33:25.231Z,68.77
2024-04-06T01:34:25.231Z,68.67
2024-04-06T01:35:25.216Z,68.06
2024-04-06T01:36:25.195Z,67.56
2024-04-06T01:37:25.252Z,66.61
2024-04-06T01:38:25.190Z,67.05
2024-04-06T01:39:25.163Z,67.26
2024-04-06T01:40:25.154Z,67.57
2024-04-06T01:41:25.192Z,67.72
2024-04-06T01:42:25.132Z,67.96
2024-04-06T01:43:25.165Z,68.27
2024-04-06T01:44:25.145Z,69.25
2024-04-06T01:45:25.098Z,70.01
2024-04-06T01:46:25.087Z,70.25
2024-04-06T01:47:25.121Z,70.60
2024-04-06T01:48:25.052Z,71.00
2024-04-06T01:49:25.097Z,71.09
2024-04-06T01:50:25.120Z,71.28
2024-04-06T01:51:25.032Z,71.45
2024-04-06T01:52:25.036Z,71.21
2024-04-06T01:53:25.052Z,71.06
2024-04-06T01:54:24.991Z,71.27
2024-04-06T01:55:24.983Z,71.37
2024-04-06T01:56:25.001Z,70.45
2024-04-06T01:57:24.958Z,70.32
2024-04-06T01:58:24.959Z,70.40
2024-04-06T01:59:24.979Z,70.20
2024-04-06T02:00:24.920Z,69.76
2024-04-06T02:01:24.916Z,68.79
2024-04-06T02:02:24.916Z,68.98
2024-04-06T02:03:24.870Z,69.40
2024-04-06T02:04:24.875Z,69.78
2024-04-06T02:05:24.927Z,70.19
2024-04-06T02:06:24.861Z,70.25
2024-04-06T02:07:24.836Z,69.83
2024-04-06T02:08:24.858Z,69.71
2024-04-06T02:09:24.839Z,69.65
2024-04-06T02:10:24.851Z,69.56
2024-04-06T02:11:24.834Z,69.36
2024-04-06T02:12:24.801Z,69.20
2024-04-06T02:13:24.788Z,69.10
2024-04-06T02:14:24.777Z,69.34
2024-04-06T02:15:24.765Z,69.38
2024-04-06T02:16:24.802Z,69.80
2024-04-06T02:17:24.771Z,70.11
2024-04-06T02:18:24.741Z,70.35
2024-04-06T02:19:24.721Z,70.66
2024-04-06T02:20:24.772Z,70.86
2024-04-06T02:21:24.711Z,71.28
2024-04-06T02:22:24.726Z,71.73
2024-04-06T02:23:24.796Z,72.16
2024-04-06T02:24:24.663Z,71.90
2024-04-06T02:25:24.657Z,71.75
2024-04-06T02:26:24.683Z,71.04
2024-04-06T02:27:24.631Z,69.92
2024-04-06T02:28:24.627Z,68.73
2024-04-06T02:29:24.695Z,67.43
2024-04-06T02:30:24.607Z,66.83
2024-04-06T02:31:24.613Z,66.19
2024-04-06T02:32:24.621Z,65.78
2024-04-06T02:33:24.571Z,65.69
2024-04-06T02:34:24.547Z,65.96
2024-04-06T02:35:24.567Z,65.85
2024-04-06T02:36:24.551Z,65.55
2024-04-06T02:37:24.512Z,65.67
2024-04-06T02:38:24.522Z,65.27
2024-04-06T02:39:24.504Z,65.75
2024-04-06T02:40:24.514Z,65.59
2024-04-06T02:41:24.515Z,65.66
2024-04-06T02:42:24.497Z,66.00
2024-04-06T02:43:24.467Z,66.40
2024-04-06T02:44:24.477Z,66.42
2024-04-06T02:45:24.446Z,66.84
2024-04-06T02:46:24.398Z,67.90
2024-04-06T02:47:24.429Z,68.61
2024-04-06T02:48:24.453Z,69.08
2024-04-06T02:49:24.401Z,69.67
2024-04-06T02:50:24.389Z,69.36
2024-04-06T02:51:24.368Z,68.74
2024-04-06T02:52:24.370Z,68.53
2024-04-06T02:53:24.466Z,68.65
2024-04-06T02:54:24.352Z,68.75
2024-04-06T02:55:24.332Z,70.01
2024-04-06T02:56:24.356Z,70.35
2024-04-06T02:57:24.322Z,70.82
2024-04-06T02:58:24.301Z,71.50
2024-04-06T02:59:24.349Z,69.94
2024-04-06T03:00:24.251Z,69.47
2024-04-06T03:01:24.257Z,69.11
2024-04-06T03:02:24.331Z,69.11
2024-04-06T03:03:24.270Z,69.00
2024-04-06T03:04:24.266Z,70.05
2024-04-06T03:05:24.243Z,70.16
2024-04-06T03:06:24.208Z,70.43
2024-04-06T03:07:24.206Z,71.13
2024-04-06T03:08:24.200Z,70.62
2024-04-06T03:09:24.199Z,71.34
2024-04-06T03:10:24.206Z,71.93
2024-04-06T03:11:24.165Z,71.91
2024-04-06T03:12:24.154Z,72.33
2024-04-06T03:13:24.126Z,72.66
2024-04-06T03:14:24.129Z,73.40
2024-04-06T03:15:24.116Z,73.65
2024-04-06T03:16:24.154Z,71.29
2024-04-06T03:17:24.130Z,71.37
2024-04-06T03:18:24.097Z,71.67
2024-04-06T03:19:24.062Z,71.00
2024-04-06T03:20:24.070Z,71.05
2024-04-06T03:21:24.055Z,70.79
2024-04-06T03:22:24.043Z,70.89
2024-04-06T03:23:24.096Z,70.38
2024-04-06T03:24:24.023Z,70.17
2024-04-06T03:25:24.023Z,70.14
2024-04-06T03:26:23.995Z,70.35
2024-04-06T03:27:23.964Z,70.64
2024-04-06T03:28:23.980Z,71.32
2024-04-06T03:29:24.000Z,71.23
2024-04-06T03:30:23.983Z,71.20
2024-04-06T03:31:23.955Z,70.90
2024-04-06T03:32:23.966Z,70.74
2024-04-06T03:33:23.936Z,71.42
2024-04-06T03:34:23.927Z,71.29
2024-04-06T03:35:23.927Z,72.12
2024-04-06T03:36:26.026Z,71.43
2024-04-06T03:37:23.895Z,71.47
2024-04-06T03:38:23.910Z,71.25
2024-04-06T03:39:23.868Z,70.87
2024-04-06T03:40:23.863Z,70.77
2024-04-06T03:41:23.840Z,70.59
2024-04-06T03:42:23.826Z,70.78
2024-04-06T03:43:23.808Z,70.73
2024-04-06T03:44:23.863Z,71.16
2024-04-06T03:45:23.804Z,71.25
2024-04-06T03:46:23.764Z,71.55
2024-04-06T03:47:23.806Z,71.58
2024-04-06T03:48:23.762Z,71.26
2024-04-06T03:49:23.782Z,71.20
2024-04-06T03:50:23.758Z,71.27
2024-04-06T03:51:23.731Z,71.14
2024-04-06T03:52:23.706Z,71.35
2024-04-06T03:53:23.711Z,71.09
2024-04-06T03:54:23.720Z,72.36
2024-04-06T03:55:23.688Z,71.79
2024-04-06T03:56:23.665Z,72.07
2024-04-06T03:57:23.672Z,72.88
2024-04-06T03:58:23.645Z,72.45
2024-04-06T03:59:23.643Z,72.18
2024-04-06T04:00:23.650Z,72.77
2024-04-06T04:01:23.611Z,72.15
2024-04-06T04:02:23.605Z,71.86
2024-04-06T04:03:23.590Z,71.90
2024-04-06T04:04:23.584Z,72.14
2024-04-06T04:05:23.578Z,72.44
2024-04-06T04:06:23.616Z,72.55
2024-04-06T04:07:23.552Z,72.61
2024-04-06T04:08:23.563Z,73.10
2024-04-06T04:09:23.548Z,73.76
2024-04-06T04:10:23.519Z,74.42
2024-04-06T04:11:23.525Z,74.28
2024-04-06T04:12:23.555Z,75.15
2024-04-06T04:13:23.488Z,74.41
2024-04-06T04:14:23.476Z,73.55
2024-04-06T04:15:23.469Z,72.82
2024-04-06T04:16:23.459Z,72.60
2024-04-06T04:17:23.441Z,72.27
2024-04-06T04:18:23.435Z,71.59
2024-04-06T04:19:23.436Z,71.31
2024-04-06T04:20:23.416Z,71.99
2024-04-06T04:21:23.402Z,71.97
2024-04-06T04:22:24.548Z,71.90
2024-04-06T04:23:23.381Z,71.77
2024-04-06T04:24:23.385Z,71.76
2024-04-06T04:25:23.357Z,71.53
2024-04-06T04:26:23.355Z,72.33
2024-04-06T04:27:23.323Z,72.43
2024-04-06T04:28:23.326Z,72.33
2024-04-06T04:29:23.327Z,72.63
2024-04-06T04:30:23.306Z,73.55
2024-04-06T04:31:23.303Z,73.47
2024-04-06T04:32:23.263Z,73.83
2024-04-06T04:33:23.262Z,74.11
2024-04-06T04:34:23.287Z,73.68
2024-04-06T04:35:23.251Z,72.94
2024-04-06T04:36:23.254Z,72.75
2024-04-06T04:37:23.216Z,73.13
2024-04-06T04:38:23.219Z,72.61
2024-04-06T04:39:23.206Z,72.38
2024-04-06T04:40:23.213Z,72.23
2024-04-06T04:41:23.195Z,72.57
2024-04-06T04:42:23.175Z,73.12
2024-04-06T04:43:23.164Z,73.21
2024-04-06T04:44:35.855Z,73.38
2024-04-06T04:45:23.137Z,73.92
2024-04-06T04:46:23.132Z,74.19
2024-04-06T04:47:23.117Z,74.06
2024-04-06T04:48:23.078Z,74.11
2024-04-06T04:49:23.099Z,73.88
2024-04-06T04:50:23.077Z,73.92
2024-04-06T04:51:23.114Z,74.19
2024-04-06T04:52:23.071Z,74.50
2024-04-06T04:53:23.051Z,74.67
2024-04-06T04:54:23.038Z,74.68
2024-04-06T04:55:24.915Z,74.68
2024-04-06T04:56:23.015Z,74.65
2024-04-06T04:57:23.036Z,74.72
2024-04-06T04:58:22.999Z,75.38
2024-04-06T04:59:22.983Z,75.24
2024-04-06T05:00:22.971Z,75.57
2024-04-06T05:01:22.968Z,75.16
2024-04-06T05:02:22.952Z,74.83
2024-04-06T05:03:22.982Z,73.64
2024-04-06T05:04:22.928Z,73.70
2024-04-06T05:05:22.913Z,73.52
2024-04-06T05:06:22.907Z,73.62
2024-04-06T05:07:22.940Z,74.53
2024-04-06T05:08:22.877Z,74.01
2024-04-06T05:09:22.904Z,74.44
2024-04-06T05:10:22.866Z,74.23
2024-04-06T05:11:22.852Z,73.48
2024-04-06T05:12:22.844Z,74.13
2024-04-06T05:13:22.856Z,73.18
2024-04-06T05:14:22.817Z,73.26
2024-04-06T05:15:22.797Z,72.91
2024-04-06T05:16:22.808Z,73.37
2024-04-06T05:17:22.783Z,73.81
2024-04-06T05:18:22.825Z,74.26
2024-04-06T05:19:22.755Z,74.59
2024-04-06T05:20:22.761Z,74.54
2024-04-06T05:21:22.744Z,74.50
2024-04-06T05:22:22.743Z,74.61
2024-04-06T05:23:22.721Z,74.89
2024-04-06T05:24:22.722Z,74.95
2024-04-06T05:25:22.690Z,75.06
2024-04-06T05:26:22.696Z,74.27
2024-04-06T05:27:22.679Z,73.73
2024-04-06T05:28:22.663Z,73.31
2024-04-06T05:29:22.664Z,72.46
2024-04-06T05:30:22.685Z,71.86
2024-04-06T05:31:22.641Z,70.73
2024-04-06T05:32:22.622Z,70.33
2024-04-06T05:33:22.612Z,69.85
2024-04-06T05:34:22.602Z,69.89
2024-04-06T05:35:22.594Z,69.67
2024-04-06T05:36:22.600Z,70.35
2024-04-06T05:37:22.559Z,70.11
2024-04-06T05:38:22.557Z,70.35
2024-04-06T05:39:22.548Z,70.35
2024-04-06T05:40:22.564Z,71.20
2024-04-06T05:41:22.563Z,71.68
2024-04-06T05:42:22.514Z,72.02
2024-04-06T05:43:22.504Z,71.99
2024-04-06T05:44:22.498Z,72.54
2024-04-06T05:45:22.483Z,72.71
2024-04-06T05:46:22.533Z,73.80
2024-04-06T05:47:22.486Z,73.66
2024-04-06T05:48:22.483Z,74.10
2024-04-06T05:49:22.444Z,74.06
2024-04-06T05:50:22.435Z,74.55
2024-04-06T05:51:22.411Z,75.34
2024-04-06T05:52:22.453Z,74.92
2024-04-06T05:53:22.405Z,75.01
2024-04-06T05:54:22.378Z,75.84
2024-04-06T05:55:22.367Z,75.39
2024-04-06T05:56:22.373Z,75.51
2024-04-06T05:57:22.376Z,74.86
2024-04-06T05:58:22.345Z,75.41
2024-04-06T05:59:22.326Z,74.60
2024-04-06T06:00:22.363Z,74.62
2024-04-06T06:01:22.298Z,74.67
2024-04-06T06:02:22.297Z,74.70
2024-04-06T06:03:22.314Z,74.67
2024-04-06T06:04:22.278Z,73.20
2024-04-06T06:05:22.276Z,72.71
2024-04-06T06:06:22.263Z,72.44
2024-04-06T06:07:22.262Z,71.71
2024-04-06T06:08:22.266Z,70.69
2024-04-06T06:09:22.250Z,71.07
2024-04-06T06:10:22.226Z,71.94
2024-04-06T06:11:22.220Z,71.73
2024-04-06T06:12:22.181Z,70.27
2024-04-06T06:13:22.167Z,69.50
2024-04-06T06:14:23.742Z,70.81
2024-04-06T06:15:22.158Z,71.34
2024-04-06T06:16:22.144Z,70.73
2024-04-06T06:17:22.142Z,70.44
2024-04-06T06:18:22.133Z,69.34
2024-04-06T06:19:22.170Z,69.60
2024-04-06T06:20:22.114Z,69.15
2024-04-06T06:21:22.072Z,69.79
2024-04-06T06:22:22.061Z,70.45
2024-04-06T06:23:22.077Z,69.24
2024-04-06T06:24:22.052Z,69.08
2024-04-06T06:25:22.130Z,70.94
2024-04-06T06:26:22.036Z,69.14
2024-04-06T06:27:22.019Z,67.81
2024-04-06T06:28:22.021Z,66.39
2024-04-06T06:29:22.008Z,67.51
2024-04-06T06:30:22.019Z,66.58
2024-04-06T06:31:22.017Z,67.39
2024-04-06T06:32:21.982Z,68.54
2024-04-06T06:33:22.054Z,68.42
2024-04-06T06:34:22.006Z,69.14
2024-04-06T06:35:21.957Z,68.02
2024-04-06T06:38:21.937Z,66.97
2024-04-06T06:41:21.871Z,67.17
2024-04-06T06:42:21.843Z,67.27
2024-04-06T06:43:21.867Z,67.21
2024-04-06T06:44:21.818Z,65.36
2024-04-06T06:45:21.854Z,66.22
2024-04-06T06:46:21.830Z,67.10
2024-04-06T06:47:21.790Z,66.11
2024-04-06T06:48:21.795Z,66.64
2024-04-06T06:49:21.780Z,66.91
2024-04-06T06:50:21.798Z,66.18
2024-04-06T06:51:21.769Z,67.26
2024-04-06T06:52:21.770Z,65.96
2024-04-06T06:53:21.767Z,65.98
2024-04-06T06:54:21.732Z,65.49
2024-04-06T06:55:21.712Z,66.62
2024-04-06T06:56:21.735Z,65.66
2024-04-06T06:57:21.691Z,65.48
2024-04-06T06:58:21.650Z,65.31
2024-04-06T06:59:21.700Z,64.58
2024-04-06T07:00:21.666Z,64.98
2024-04-06T07:01:21.631Z,64.62
2024-04-06T07:02:21.672Z,65.04
2024-04-06T07:03:21.630Z,64.03
2024-04-06T07:04:21.618Z,64.07
2024-04-06T07:05:21.592Z,63.83
2024-04-06T07:07:21.562Z,62.84
2024-04-06T07:08:21.619Z,63.84
2024-04-06T07:09:21.563Z,64.40
2024-04-06T07:10:21.555Z,63.81
2024-04-06T07:11:21.581Z,61.34
2024-04-06T07:12:21.527Z,60.64
2024-04-06T07:13:21.517Z,60.73
2024-04-06T07:14:21.526Z,60.90
2024-04-06T07:15:21.491Z,60.26
2024-04-06T07:16:21.468Z,60.70
2024-04-06T07:17:23.558Z,62.08
2024-04-06T07:18:21.468Z,61.19
2024-04-06T07:19:21.450Z,61.92
2024-04-06T07:20:21.458Z,61.52
2024-04-06T07:21:21.461Z,61.15
2024-04-06T07:22:21.443Z,61.92
2024-04-06T07:23:21.401Z,63.19
2024-04-06T07:24:21.381Z,62.97
2024-04-06T07:25:21.387Z,63.74
2024-04-06T07:26:21.394Z,63.82
2024-04-06T07:27:21.346Z,63.16
2024-04-06T07:28:21.337Z,61.74
2024-04-06T07:29:21.329Z,60.31
2024-04-06T07:30:21.305Z,59.03
2024-04-06T07:31:21.306Z,58.71
2024-04-06T07:32:21.337Z,59.07
2024-04-06T07:33:21.289Z,59.38
2024-04-06T07:34:21.296Z,60.02
2024-04-06T07:35:21.256Z,59.23
2024-04-06T07:36:21.266Z,59.10
2024-04-06T07:37:21.291Z,63.03
2024-04-06T07:38:21.244Z,62.53
2024-04-06T07:39:21.241Z,61.78
2024-04-06T07:40:24.012Z,63.04
2024-04-06T07:41:21.216Z,60.60
2024-04-06T07:42:21.198Z,63.87
2024-04-06T07:43:21.224Z,61.87
2024-04-06T07:44:21.195Z,61.21
2024-04-06T07:45:21.172Z,59.47
2024-04-06T07:46:21.143Z,59.64
2024-04-06T07:47:21.129Z,59.18
2024-04-06T07:48:21.116Z,59.03
2024-04-06T07:49:21.164Z,58.96
2024-04-06T07:50:21.109Z,58.66
2024-04-06T07:51:21.103Z,58.49
2024-04-06T07:52:21.082Z,58.05
2024-04-06T07:53:21.067Z,58.06
2024-04-06T07:54:21.077Z,57.92
2024-04-06T07:55:21.055Z,58.77
2024-04-06T07:56:21.046Z,59.79
2024-04-06T07:57:21.020Z,59.44
2024-04-06T07:58:21.033Z,59.76
2024-04-06T07:59:21.035Z,58.37
2024-04-06T08:00:21.016Z,57.37
2024-04-06T08:01:20.997Z,58.28
2024-04-06T08:02:20.981Z,58.03
2024-04-06T08:03:20.997Z,58.03
2024-04-06T08:04:21.075Z,59.17
2024-04-06T08:05:20.982Z,59.97
2024-04-06T08:06:20.961Z,57.94
2024-04-06T08:07:20.945Z,57.76
2024-04-06T08:08:20.948Z,59.31
2024-04-06T08:09:20.910Z,59.10
2024-04-06T08:10:20.918Z,57.45
2024-04-06T08:11:20.893Z,57.55
2024-04-06T08:12:20.898Z,58.84
2024-04-06T08:13:20.858Z,59.08
2024-04-06T08:14:25.246Z,57.43
2024-04-06T08:15:20.841Z,55.64
2024-04-06T08:16:20.867Z,57.35
2024-04-06T08:17:20.810Z,55.85
2024-04-06T08:18:20.805Z,54.59
2024-04-06T08:19:20.785Z,55.14
2024-04-06T08:20:20.781Z,56.17
2024-04-06T08:21:20.778Z,54.76
2024-04-06T08:22:20.801Z,54.97
2024-04-06T08:23:20.751Z,54.72
2024-04-06T08:24:20.737Z,53.36
2024-04-06T08:25:20.726Z,52.49
2024-04-06T08:26:20.751Z,51.27
2024-04-06T08:27:20.705Z,52.69
2024-04-06T08:28:20.750Z,53.15
2024-04-06T08:29:20.699Z,53.40
2024-04-06T08:30:20.686Z,55.09
2024-04-06T08:31:20.667Z,49.94
2024-04-06T08:32:20.640Z,49.65
2024-04-06T08:33:20.637Z,50.49
2024-04-06T08:34:20.688Z,49.24
2024-04-06T08:35:20.626Z,49.09
2024-04-06T08:36:20.632Z,49.82
2024-04-06T08:37:20.596Z,49.87
2024-04-06T08:38:23.649Z,51.90
2024-04-06T08:39:20.598Z,51.69
2024-04-06T08:40:20.596Z,48.74
2024-04-06T08:41:20.547Z,46.84
2024-04-06T08:42:20.547Z,47.23
2024-04-06T08:43:20.540Z,46.18
2024-04-06T08:44:23.016Z,46.15
2024-04-06T08:45:20.519Z,47.25
2024-04-06T08:46:20.532Z,46.10
2024-04-06T08:47:20.511Z,44.98
2024-04-06T08:48:20.497Z,44.77
2024-04-06T08:49:20.477Z,44.51
2024-04-06T08:50:23.176Z,45.83
2024-04-06T08:51:20.468Z,46.82
2024-04-06T08:52:20.466Z,48.58
2024-04-06T08:53:20.427Z,50.24
2024-04-06T08:54:20.437Z,50.86
2024-04-06T08:55:20.408Z,51.47
2024-04-06T08:56:20.395Z,52.31
2024-04-06T08:57:20.413Z,49.78
2024-04-06T08:58:20.370Z,49.00
2024-04-06T08:59:20.357Z,53.04
2024-04-06T09:00:20.345Z,51.70
2024-04-06T09:01:20.332Z,51.31
2024-04-06T09:02:22.429Z,47.34
2024-04-06T09:03:20.345Z,47.18
2024-04-06T09:04:20.304Z,48.38
2024-04-06T09:05:20.305Z,47.99
2024-04-06T09:06:20.305Z,48.32
2024-04-06T09:07:20.286Z,49.58
2024-04-06T09:08:22.354Z,49.90
2024-04-06T09:09:20.296Z,49.65
2024-04-06T09:10:20.237Z,48.50
2024-04-06T09:11:20.230Z,47.66
2024-04-06T09:12:20.250Z,50.07
2024-04-06T09:13:20.220Z,48.58
2024-04-06T09:14:22.424Z,48.61
2024-04-06T09:15:20.234Z,47.62
2024-04-06T09:16:20.175Z,47.32
2024-04-06T09:17:20.180Z,47.84
2024-04-06T09:18:20.207Z,49.38
2024-04-06T09:19:20.161Z,49.01
2024-04-06T09:20:20.191Z,48.49
2024-04-06T09:21:20.126Z,49.08
2024-04-06T09:22:20.110Z,46.50
2024-04-06T09:23:20.106Z,44.63
2024-04-06T09:24:20.124Z,44.74
2024-04-06T09:25:20.115Z,49.24
2024-04-06T09:26:21.432Z,48.53
2024-04-06T09:27:20.071Z,48.72
2024-04-06T09:28:20.057Z,48.57
2024-04-06T09:29:20.059Z,47.68
2024-04-06T09:30:20.035Z,47.81
2024-04-06T09:31:20.067Z,45.47
2024-04-06T09:32:21.858Z,44.64
2024-04-06T09:33:19.990Z,45.63
2024-04-06T09:34:20.003Z,47.25
2024-04-06T09:35:19.980Z,48.02
2024-04-06T09:36:19.995Z,45.63
2024-04-06T09:37:20.020Z,46.25
2024-04-06T09:38:21.891Z,45.55
2024-04-06T09:39:19.956Z,45.31
2024-04-06T09:40:19.985Z,47.49
2024-04-06T09:41:19.938Z,46.87
2024-04-06T09:42:19.924Z,47.86
2024-04-06T09:43:19.946Z,48.31
2024-04-06T09:44:22.313Z,48.44
2024-04-06T09:45:19.899Z,46.68
2024-04-06T09:46:19.927Z,47.78
2024-04-06T09:47:19.887Z,44.14
2024-04-06T09:48:19.882Z,47.29
2024-04-06T09:49:19.958Z,45.26
2024-04-06T09:50:21.901Z,44.26
2024-04-06T09:51:19.864Z,44.09
2024-04-06T09:52:19.905Z,41.34
2024-04-06T09:53:19.823Z,43.33
2024-04-06T09:54:19.851Z,42.48
2024-04-06T09:55:19.857Z,44.54
2024-04-06T09:56:21.810Z,45.68
2024-04-06T09:57:19.817Z,46.77
2024-04-06T09:58:19.784Z,45.35
2024-04-06T09:59:19.737Z,44.57
2024-04-06T10:00:19.817Z,40.71
2024-04-06T10:01:19.866Z,44.24
2024-04-06T10:02:20.870Z,42.89
2024-04-06T10:03:19.698Z,42.15
2024-04-06T10:04:19.698Z,42.28
2024-04-06T10:05:19.677Z,41.06
2024-04-06T10:06:19.736Z,42.57
2024-04-06T10:07:19.701Z,39.06
2024-04-06T10:08:21.286Z,35.04
2024-04-06T10:09:19.651Z,37.31
2024-04-06T10:10:19.633Z,38.37
2024-04-06T10:11:19.693Z,39.93
2024-04-06T10:12:19.597Z,43.34
2024-04-06T10:13:19.660Z,42.85
2024-04-06T10:14:19.588Z,41.85
2024-04-06T10:15:19.571Z,39.85
2024-04-06T10:16:19.588Z,40.18
2024-04-06T10:17:19.554Z,41.67
2024-04-06T10:18:19.553Z,43.04
2024-04-06T10:19:19.594Z,42.69
2024-04-06T10:20:19.521Z,42.53
2024-04-06T10:21:19.526Z,39.32
2024-04-06T10:22:19.512Z,38.79
2024-04-06T10:23:19.531Z,40.93
2024-04-06T10:24:19.498Z,36.00
2024-04-06T10:25:19.571Z,42.48
2024-04-06T10:26:19.463Z,35.08
2024-04-06T10:27:19.460Z,33.82
2024-04-06T10:28:19.459Z,35.77
2024-04-06T10:29:19.431Z,35.86
2024-04-06T10:30:19.434Z,39.29
2024-04-06T10:31:22.289Z,40.07
2024-04-06T10:32:19.404Z,40.25
2024-04-06T10:33:19.403Z,40.28
2024-04-06T10:34:19.415Z,38.90
2024-04-06T10:35:19.392Z,39.42
2024-04-06T10:36:19.357Z,38.78
2024-04-06T10:37:19.467Z,40.46
2024-04-06T10:38:19.329Z,40.30
2024-04-06T10:39:19.326Z,43.30
2024-04-06T10:40:19.327Z,41.82
2024-04-06T10:41:19.316Z,38.76
2024-04-06T10:42:19.332Z,39.56
2024-04-06T10:43:19.332Z,41.70
2024-04-06T10:44:19.282Z,38.57
2024-04-06T10:45:19.269Z,38.43
2024-04-06T10:46:19.324Z,36.87
2024-04-06T10:47:19.238Z,34.87
2024-04-06T10:48:19.268Z,41.27
2024-04-06T10:49:19.277Z,40.31
2024-04-06T10:50:19.237Z,38.58
2024-04-06T10:51:19.218Z,40.18
2024-04-06T10:52:19.252Z,37.60
2024-04-06T10:53:19.190Z,38.28
2024-04-06T10:54:19.213Z,38.68
2024-04-06T10:55:19.235Z,40.29
2024-04-06T10:56:19.163Z,38.59
2024-04-06T10:57:19.160Z,39.47
2024-04-06T10:58:19.153Z,38.98
2024-04-06T10:59:19.177Z,38.41
2024-04-06T11:00:19.119Z,40.54
2024-04-06T11:01:19.147Z,38.79
2024-04-06T11:02:19.096Z,37.42
2024-04-06T11:03:19.102Z,37.40
2024-04-06T11:04:19.147Z,37.49
2024-04-06T11:05:19.078Z,36.64
2024-04-06T11:06:19.061Z,33.91
2024-04-06T11:07:19.092Z,32.90
2024-04-06T11:08:19.036Z,36.96
2024-04-06T11:09:19.048Z,33.08
2024-04-06T11:10:19.129Z,36.46
2024-04-06T11:11:19.021Z,37.66
2024-04-06T11:12:19.018Z,37.14
2024-04-06T11:13:19.055Z,34.32
2024-04-06T11:14:18.987Z,34.17
2024-04-06T11:15:18.976Z,35.75
2024-04-06T11:16:19.116Z,37.29
2024-04-06T11:17:18.965Z,34.98
2024-04-06T11:18:18.945Z,36.42
2024-04-06T11:19:18.950Z,36.64
2024-04-06T11:20:18.921Z,35.73
2024-04-06T11:21:18.944Z,34.51
2024-04-06T11:22:18.936Z,34.28
2024-04-06T11:23:18.921Z,34.34
2024-04-06T11:24:18.900Z,32.71
2024-04-06T11:25:18.962Z,31.61
2024-04-06T11:26:18.863Z,31.94
2024-04-06T11:27:18.897Z,32.54
2024-04-06T11:28:18.893Z,34.49
2024-04-06T11:29:18.839Z,37.95
2024-04-06T11:30:18.842Z,34.13
2024-04-06T11:31:18.923Z,35.98
2024-04-06T11:32:18.801Z,38.45
2024-04-06T11:33:18.835Z,38.53
2024-04-06T11:34:18.852Z,37.87
2024-04-06T11:35:18.783Z,36.94
2024-04-06T11:36:18.762Z,37.21
2024-04-06T11:37:18.806Z,34.21
2024-04-06T11:38:18.787Z,37.60
2024-04-06T11:39:18.748Z,35.32
2024-04-06T11:40:18.750Z,38.03
2024-04-06T11:41:18.722Z,35.94
2024-04-06T11:42:18.714Z,36.33
2024-04-06T11:43:18.745Z,37.72
2024-04-06T11:44:18.736Z,37.45
2024-04-06T11:45:18.713Z,39.16
2024-04-06T11:46:18.675Z,36.73
2024-04-06T11:47:18.652Z,35.41
2024-04-06T11:48:18.656Z,34.69
2024-04-06T11:49:18.657Z,36.87
2024-04-06T11:50:18.672Z,37.59
2024-04-06T11:51:18.629Z,39.79
2024-04-06T11:52:18.645Z,39.90
2024-04-06T11:53:18.591Z,41.34
2024-04-06T11:54:18.795Z,39.81
2024-04-06T11:55:18.723Z,38.83
2024-04-06T11:56:18.596Z,38.01
2024-04-06T11:57:18.551Z,36.88
2024-04-06T11:58:18.541Z,34.36
2024-04-06T11:59:18.552Z,35.64
2024-04-06T12:00:20.993Z,34.66
2024-04-06T12:01:18.570Z,34.46
2024-04-06T12:02:18.573Z,36.72
2024-04-06T12:03:18.499Z,38.75
2024-04-06T12:04:18.489Z,37.60
2024-04-06T12:05:18.486Z,37.66
2024-04-06T12:06:18.464Z,34.21
2024-04-06T12:07:18.516Z,39.11
2024-04-06T12:08:18.492Z,38.91
2024-04-06T12:09:18.430Z,34.51
2024-04-06T12:10:18.494Z,36.11
2024-04-06T12:11:18.420Z,35.04
2024-04-06T12:12:18.411Z,37.02
2024-04-06T12:13:18.429Z,37.93
2024-04-06T12:14:18.377Z,38.10
2024-04-06T12:15:18.374Z,37.31
2024-04-06T12:16:18.403Z,36.87
2024-04-06T12:17:18.343Z,38.85
2024-04-06T12:18:18.399Z,37.02
2024-04-06T12:19:18.344Z,35.29
2024-04-06T12:20:18.365Z,35.62
2024-04-06T12:21:18.314Z,32.10
2024-04-06T12:22:18.339Z,34.68
2024-04-06T12:23:18.291Z,34.35
2024-04-06T12:24:18.317Z,34.17
2024-04-06T12:25:18.317Z,33.85
2024-04-06T12:26:18.261Z,35.07
2024-04-06T12:27:18.277Z,34.50
2024-04-06T12:28:18.267Z,35.95
2024-04-06T12:29:18.261Z,35.54
2024-04-06T12:30:18.228Z,36.52
2024-04-06T12:31:18.290Z,33.51
2024-04-06T12:32:18.207Z,32.46
2024-04-06T12:33:18.213Z,34.70
2024-04-06T12:34:18.289Z,35.54
2024-04-06T12:35:18.213Z,33.80
2024-04-06T12:36:18.247Z,32.79
2024-04-06T12:37:18.154Z,33.53
2024-04-06T12:38:18.174Z,33.34
2024-04-06T12:39:18.138Z,35.76
2024-04-06T12:40:18.142Z,35.57
2024-04-06T12:41:18.127Z,35.30
2024-04-06T12:42:18.150Z,34.56
2024-04-06T12:43:18.137Z,37.17
2024-04-06T12:44:18.091Z,37.51
2024-04-06T12:45:18.104Z,37.19
2024-04-06T12:46:18.112Z,36.85
2024-04-06T12:47:18.107Z,37.59
2024-04-06T12:48:18.046Z,37.12
2024-04-06T12:49:18.061Z,34.74
2024-04-06T12:50:18.047Z,34.66
2024-04-06T12:51:18.013Z,34.29
2024-04-06T12:52:18.023Z,34.64
2024-04-06T12:53:18.030Z,36.25
2024-04-06T12:54:17.986Z,33.53
2024-04-06T12:55:17.998Z,35.83
2024-04-06T12:56:17.956Z,33.61
2024-04-06T12:57:17.940Z,34.47
2024-04-06T12:58:17.994Z,33.32